マルセイユ の空港の天気 - METARとTAF

マルセイユ・プロヴァンス空港 ( LFML / MRS ) - フランス マルセイユ
飛行場実況気象(Metar)
観測時間06/15 00:00 CEST (06/14 22:00 UTC)
風向・風速南東 3m/s
視程10km以上
天気現象
なし
気温23℃
湿度73%
気圧1015hPa
METARLFML 142200Z AUTO 14005KT CAVOK 23/18 Q1015 NOSIG
過去の天気等 Google飛行場航空写真 Wunderground天気予報

過去48時間のMETAR

飛行場予報(TAF)
発表時間: 6/14 22:00 CEST (6/14 20:00 UTC)
予報対象時間: 14日23時 CEST ~ 16日5時 CEST
風向・風速不定 2m/s
視程10km以上
なし
15日2時 CEST ~ 15日9時 CEST に 確率 30% で一時的に
視程500m
天気現象
全天の8割程度の雲 雲底高度 300m
15日12時 CEST ~ 15日14時 CEST に徐々に
風向・風速南南西 5m/s
15日16時 CEST ~ 15日20時 CEST に一時的に
風向・風速南 8m/s 瞬間風速 13m/s
15日20時 CEST ~ 15日22時 CEST に徐々に
風向・風速不定 2m/s
16日0時 CEST ~ 16日5時 CEST に一時的に
視程500m
天気現象
全天の8割程度の雲 雲底高度 210m
TAF LFML 142000Z 1421/1603 VRB03KT CAVOK TX32/1514Z TN20/1504Z
PROB30 TEMPO 1500/1507 0500 FG BKN010
BECMG 1510/1512 20010KT
TEMPO 1514/1518 18015G25KT
BECMG 1518/1520 VRB03KT
TEMPO 1522/1603 0500 FG BKN007